Time;durP1;ratioP1;P1;durP2;ratioP2;P2;SDS_P1;SDS_P2;PMS_P1;PMS_P2;Temp;Humidity;BMP_temperature;BMP_pressure;BME280_temperature;BME280_humidity;BME280_pressure;Samples;Min_cycle;Max_cycle;Signal;HPM_P1;HPM_P2
2022/01/15 00:01:03;;;;;;;6.63;2.33;;;;;;;;;;5028039;28;20033;-70
2022/01/15 00:03:30;;;;;;;11.73;3.30;;;;;;;;;;5028074;28;20030;-70
2022/01/15 00:05:57;;;;;;;8.10;3.53;;;;;;;;;;5030076;28;20029;-69
2022/01/15 00:08:24;;;;;;;13.23;4.23;;;;;;;;;;5033326;28;20032;-69
2022/01/15 00:10:51;;;;;;;9.37;4.57;;;;;;;;;;5033063;28;20053;-70
2022/01/15 00:13:25;;;;;;;8.87;3.70;;;;;;;;;;5033242;28;20017;-69
2022/01/15 00:16:03;;;;;;;8.00;2.80;;;;;;;;;;5033074;28;20431;-69
2022/01/15 00:18:43;;;;;;;6.57;2.97;;;;;;;;;;5029134;28;20022;-69
2022/01/15 00:21:13;;;;;;;5.87;2.93;;;;;;;;;;5027131;28;20041;-69
2022/01/15 00:23:40;;;;;;;7.70;2.93;;;;;;;;;;5027299;28;20037;-70
2022/01/15 00:26:07;;;;;;;6.70;2.47;;;;;;;;;;5027635;28;20415;-70
2022/01/15 00:28:34;;;;;;;8.60;4.20;;;;;;;;;;5031114;28;20032;-70
2022/01/15 00:31:01;;;;;;;12.60;3.33;;;;;;;;;;5032755;28;20031;-69
2022/01/15 00:33:30;;;;;;;9.30;3.10;;;;;;;;;;5032829;28;20105;-70
2022/01/15 00:35:57;;;;;;;7.23;2.70;;;;;;;;;;5033022;28;20097;-69
2022/01/15 00:38:23;;;;;;;11.13;4.53;;;;;;;;;;5032279;28;20120;-69
2022/01/15 00:40:50;;;;;;;21.37;12.80;;;;;;;;;;5028803;28;20021;-70
2022/01/15 00:43:18;;;;;;;18.80;8.40;;;;;;;;;;5027297;28;20044;-69
2022/01/15 00:45:45;;;;;;;13.80;7.80;;;;;;;;;;5026706;28;20029;-69
2022/01/15 00:48:12;;;;;;;12.87;6.73;;;;;;;;;;5027195;28;20060;-69
2022/01/15 00:50:38;;;;;;;11.60;7.80;;;;;;;;;;5030534;28;20049;-69
2022/01/15 00:53:05;;;;;;;15.53;7.00;;;;;;;;;;5032420;28;20537;-69
2022/01/15 00:55:32;;;;;;;11.57;5.07;;;;;;;;;;5032597;28;20029;-68
2022/01/15 00:57:58;;;;;;;8.00;4.00;;;;;;;;;;5032394;28;20022;-69
2022/01/15 01:00:26;;;;;;;9.00;4.03;;;;;;;;;;5032225;28;20021;-69
2022/01/15 01:02:53;;;;;;;8.13;3.60;;;;;;;;;;5028863;28;20587;-69
2022/01/15 01:05:21;;;;;;;6.07;3.17;;;;;;;;;;5026991;28;20511;-69
2022/01/15 01:07:47;;;;;;;4.10;2.30;;;;;;;;;;5027033;28;20040;-69
2022/01/15 01:13:14;;;;;;;10.53;5.10;;;;;;;;;;5013267;28;20052;-69
2022/01/15 01:23:38;;;;;;;8.13;2.57;;;;;;;;;;5031546;28;20033;-69
2022/01/15 01:26:12;;;;;;;7.07;2.63;;;;;;;;;;5026881;28;20013;-69
2022/01/15 01:28:45;;;;;;;8.95;3.90;;;;;;;;;;5026898;28;20029;-69
2022/01/15 01:31:25;;;;;;;10.13;4.00;;;;;;;;;;5026204;28;20025;-69
2022/01/15 01:33:56;;;;;;;6.27;3.33;;;;;;;;;;5031661;28;20025;-69
2022/01/15 01:38:56;;;;;;;11.43;3.67;;;;;;;;;;5036188;28;20087;-70
2022/01/15 01:41:23;;;;;;;11.53;3.33;;;;;;;;;;5035330;28;20028;-70
2022/01/15 01:43:59;;;;;;;8.30;2.57;;;;;;;;;;5036025;28;20034;-70
2022/01/15 01:48:53;;;;;;;5.17;2.10;;;;;;;;;;5030804;28;20116;-71
2022/01/15 01:51:30;;;;;;;4.93;2.33;;;;;;;;;;5030453;28;20017;-70
2022/01/15 01:53:57;;;;;;;5.23;1.73;;;;;;;;;;5030419;28;20071;-70
2022/01/15 01:56:24;;;;;;;5.33;1.83;;;;;;;;;;5031820;28;20033;-70
2022/01/15 01:58:50;;;;;;;10.77;2.50;;;;;;;;;;5035866;28;20055;-70
2022/01/15 02:01:17;;;;;;;6.07;1.67;;;;;;;;;;5035705;28;20029;-70
2022/01/15 02:03:44;;;;;;;2.90;1.33;;;;;;;;;;5035490;28;20041;-69
2022/01/15 02:06:10;;;;;;;4.53;2.20;;;;;;;;;;5035684;28;20025;-70
2022/01/15 02:08:38;;;;;;;6.00;2.90;;;;;;;;;;5033631;28;20469;-70
2022/01/15 02:11:06;;;;;;;5.23;2.70;;;;;;;;;;5030335;28;20072;-70
2022/01/15 02:13:34;;;;;;;7.07;2.77;;;;;;;;;;5029898;28;20028;-70
2022/01/15 02:16:01;;;;;;;7.13;2.97;;;;;;;;;;5029825;28;20372;-70
2022/01/15 02:18:28;;;;;;;9.80;3.10;;;;;;;;;;5031180;28;20087;-70
2022/01/15 02:23:35;;;;;;;4.77;2.77;;;;;;;;;;5035276;28;20510;-69
2022/01/15 02:26:06;;;;;;;6.32;2.55;;;;;;;;;;5035423;28;20025;-70
2022/01/15 02:28:35;;;;;;;7.20;2.37;;;;;;;;;;5035275;28;20029;-70
2022/01/15 02:31:03;;;;;;;9.70;2.50;;;;;;;;;;5033030;28;20026;-70
2022/01/15 02:33:30;;;;;;;4.17;2.30;;;;;;;;;;5029810;28;20365;-70
2022/01/15 02:35:57;;;;;;;3.97;1.93;;;;;;;;;;5030234;28;20435;-70
2022/01/15 02:38:23;;;;;;;5.53;2.33;;;;;;;;;;5029956;28;20735;-70
2022/01/15 02:40:51;;;;;;;4.53;2.47;;;;;;;;;;5031365;28;20025;-70
2022/01/15 02:43:20;;;;;;;7.37;2.50;;;;;;;;;;5034268;28;20034;-70
2022/01/15 02:45:55;;;;;;;7.00;2.90;;;;;;;;;;5034925;28;20108;-70
2022/01/15 02:48:21;;;;;;;;;;;;;;;;;;5034694;28;20021;-70
2022/01/15 02:50:48;;;;;;;8.83;3.40;;;;;;;;;;5034847;28;20351;-70
2022/01/15 02:53:18;;;;;;;10.57;3.10;;;;;;;;;;5032291;28;20202;-70
2022/01/15 02:55:47;;;;;;;5.83;2.37;;;;;;;;;;5029567;28;20033;-69
2022/01/15 02:58:13;;;;;;;9.87;3.20;;;;;;;;;;5029392;28;20083;-70
2022/01/15 03:00:40;;;;;;;5.83;3.27;;;;;;;;;;5029569;28;20057;-70
2022/01/15 03:03:07;;;;;;;11.77;3.30;;;;;;;;;;5030398;28;20017;-70
2022/01/15 03:05:34;;;;;;;4.23;2.20;;;;;;;;;;5034225;28;20031;-70
2022/01/15 03:08:01;;;;;;;3.47;1.87;;;;;;;;;;5034200;28;20068;-70
2022/01/15 03:10:28;;;;;;;2.87;1.77;;;;;;;;;;5034403;28;20033;-70
2022/01/15 03:12:56;;;;;;;4.00;1.77;;;;;;;;;;5034601;28;20032;-70
2022/01/15 03:15:23;;;;;;;5.20;2.60;;;;;;;;;;5043601;28;20487;-67
2022/01/15 03:17:50;;;;;;;5.63;1.80;;;;;;;;;;5049032;28;20017;-69
2022/01/15 03:20:18;;;;;;;4.90;1.73;;;;;;;;;;5049131;28;20090;-70
2022/01/15 03:22:45;;;;;;;4.93;2.10;;;;;;;;;;5043840;28;20441;-71
2022/01/15 03:25:13;;;;;;;5.53;2.10;;;;;;;;;;5030606;28;20026;-69
2022/01/15 03:27:41;;;;;;;3.43;1.73;;;;;;;;;;5034328;28;20034;-69
2022/01/15 03:30:09;;;;;;;3.73;1.53;;;;;;;;;;5034692;28;20025;-68
2022/01/15 03:32:37;;;;;;;5.47;2.10;;;;;;;;;;5053947;28;20025;-69
2022/01/15 03:35:04;;;;;;;3.80;1.93;;;;;;;;;;5054034;28;20036;-66
2022/01/15 03:37:33;;;;;;;4.03;1.97;;;;;;;;;;5052185;28;20036;-69
2022/01/15 03:40:00;;;;;;;3.43;1.73;;;;;;;;;;5048492;28;20496;-68
2022/01/15 03:42:27;;;;;;;3.00;1.60;;;;;;;;;;5028482;28;20040;-69
2022/01/15 03:44:54;;;;;;;3.47;1.60;;;;;;;;;;5028959;28;20080;-69
2022/01/15 03:47:21;;;;;;;2.43;1.47;;;;;;;;;;5032008;28;20021;-69
2022/01/15 03:49:47;;;;;;;3.30;1.53;;;;;;;;;;5053276;28;20021;-69
2022/01/15 03:52:14;;;;;;;2.10;1.30;;;;;;;;;;5053625;28;20024;-69
2022/01/15 03:54:41;;;;;;;5.63;2.80;;;;;;;;;;5053390;28;20365;-69
2022/01/15 03:57:08;;;;;;;7.67;3.27;;;;;;;;;;5052864;28;20028;-69
2022/01/15 03:59:35;;;;;;;9.00;4.07;;;;;;;;;;5051854;28;20104;-70
2022/01/15 04:02:02;;;;;;;14.97;4.17;;;;;;;;;;5031327;28;20546;-69
2022/01/15 04:04:29;;;;;;;11.20;3.70;;;;;;;;;;5028337;28;20116;-69
2022/01/15 04:06:56;;;;;;;9.63;3.70;;;;;;;;;;5028330;28;20026;-67
2022/01/15 04:09:26;;;;;;;7.00;3.90;;;;;;;;;;5029228;28;20037;-70
2022/01/15 04:11:56;;;;;;;7.03;3.60;;;;;;;;;;5033483;28;20083;-70
2022/01/15 04:14:27;;;;;;;10.27;4.40;;;;;;;;;;5033381;28;20026;-70
2022/01/15 04:16:54;;;;;;;11.27;4.13;;;;;;;;;;5033267;28;20025;-70
2022/01/15 04:19:27;;;;;;;5.83;3.07;;;;;;;;;;5032837;28;20539;-70
2022/01/15 04:21:58;;;;;;;5.80;2.60;;;;;;;;;;5036472;28;20087;-70
2022/01/15 04:24:30;;;;;;;10.07;2.90;;;;;;;;;;5048162;28;20138;-70
2022/01/15 04:26:58;;;;;;;6.83;2.73;;;;;;;;;;5048118;28;20021;-70
2022/01/15 04:29:33;;;;;;;5.57;2.80;;;;;;;;;;5042676;28;20029;-70
2022/01/15 04:32:00;;;;;;;;;;;;;;;;;;5030200;28;20024;-70
2022/01/15 04:34:31;;;;;;;5.73;2.63;;;;;;;;;;5015636;28;19909;-70
2022/01/15 04:37:09;;;;;;;7.33;2.80;;;;;;;;;;5033108;28;20029;-70
2022/01/15 04:39:42;;;;;;;3.60;2.20;;;;;;;;;;5032702;28;20068;-70
2022/01/15 04:42:12;;;;;;;10.93;2.90;;;;;;;;;;5032410;28;20025;-70
2022/01/15 04:44:48;;;;;;;4.37;2.53;;;;;;;;;;5029907;28;20042;-70
2022/01/15 04:47:18;;;;;;;5.37;2.97;;;;;;;;;;5027653;28;20480;-70
2022/01/15 04:49:51;;;;;;;7.63;3.33;;;;;;;;;;5027620;28;20468;-70
2022/01/15 04:52:21;;;;;;;8.07;2.97;;;;;;;;;;5027802;28;20041;-70
2022/01/15 04:54:48;;;;;;;4.30;2.23;;;;;;;;;;5030599;28;20108;-70
2022/01/15 04:57:19;;;;;;;6.43;2.70;;;;;;;;;;5032647;28;20025;-70
2022/01/15 04:59:51;;;;;;;5.97;2.80;;;;;;;;;;5032178;28;20416;-70
2022/01/15 05:02:31;;;;;;;4.47;2.50;;;;;;;;;;5032657;28;20056;-70
2022/01/15 05:05:04;;;;;;;10.40;4.77;;;;;;;;;;5032084;28;20034;-70
2022/01/15 05:07:34;;;;;;;5.90;2.13;;;;;;;;;;5028095;28;20025;-70
2022/01/15 05:10:01;;;;;;;8.47;3.30;;;;;;;;;;5027455;28;20037;-70
2022/01/15 05:12:39;;;;;;;6.07;2.83;;;;;;;;;;5027479;28;20640;-70
2022/01/15 05:15:07;;;;;;;8.13;2.50;;;;;;;;;;5027020;28;20057;-70
2022/01/15 05:17:34;;;;;;;5.60;2.60;;;;;;;;;;5030804;28;20022;-70
2022/01/15 05:20:02;;;;;;;6.10;2.23;;;;;;;;;;5032479;28;20025;-70
2022/01/15 05:22:29;;;;;;;6.63;2.70;;;;;;;;;;5042400;28;20508;-70
2022/01/15 05:24:56;;;;;;;4.77;3.30;;;;;;;;;;5052155;28;20025;-70
2022/01/15 05:27:23;;;;;;;4.63;2.03;;;;;;;;;;5052183;28;20025;-70
2022/01/15 05:29:50;;;;;;;4.37;2.13;;;;;;;;;;5047842;28;20021;-70
2022/01/15 05:32:23;;;;;;;9.27;2.30;;;;;;;;;;5047122;28;20410;-70
2022/01/15 05:34:51;;;;;;;3.47;2.10;;;;;;;;;;5047177;28;20029;-69
2022/01/15 05:37:18;;;;;;;3.77;1.80;;;;;;;;;;5038099;28;20025;-70
2022/01/15 05:39:45;;;;;;;7.83;2.60;;;;;;;;;;5030926;28;20048;-70
2022/01/15 05:42:12;;;;;;;7.43;3.50;;;;;;;;;;5032313;28;20032;-70
2022/01/15 05:44:39;;;;;;;4.77;2.50;;;;;;;;;;5031721;28;20112;-70
2022/01/15 05:47:06;;;;;;;7.80;3.10;;;;;;;;;;5032033;28;20029;-70
2022/01/15 05:49:34;;;;;;;4.70;2.43;;;;;;;;;;5032251;28;20018;-69
2022/01/15 05:52:01;;;;;;;4.40;2.50;;;;;;;;;;5028014;28;20018;-69
2022/01/15 05:54:28;;;;;;;6.37;2.93;;;;;;;;;;5027116;28;20480;-70
2022/01/15 05:56:55;;;;;;;5.57;2.20;;;;;;;;;;5026657;28;20044;-69
2022/01/15 05:59:22;;;;;;;6.57;2.30;;;;;;;;;;5026865;28;20058;-70
2022/01/15 06:01:49;;;;;;;5.77;3.07;;;;;;;;;;5030308;28;20033;-69
2022/01/15 06:04:16;;;;;;;4.33;2.03;;;;;;;;;;5032042;28;20032;-69
2022/01/15 06:06:44;;;;;;;4.43;2.10;;;;;;;;;;5032073;28;20045;-69
2022/01/15 06:09:11;;;;;;;4.03;2.30;;;;;;;;;;5031325;28;20126;-69
2022/01/15 06:11:39;;;;;;;5.00;2.27;;;;;;;;;;5031615;28;20075;-71
2022/01/15 06:14:07;;;;;;;3.63;2.03;;;;;;;;;;5027708;28;20026;-70
2022/01/15 06:16:34;;;;;;;6.03;2.37;;;;;;;;;;5026870;28;20054;-71
2022/01/15 06:19:01;;;;;;;8.60;3.00;;;;;;;;;;5027827;28;20129;-71
2022/01/15 06:21:28;;;;;;;8.07;2.40;;;;;;;;;;5032133;28;20028;-69
2022/01/15 06:23:55;;;;;;;5.23;2.43;;;;;;;;;;5053467;28;20043;-70
2022/01/15 06:26:22;;;;;;;3.83;2.10;;;;;;;;;;5055253;28;20364;-70
2022/01/15 06:28:49;;;;;;;7.10;2.10;;;;;;;;;;5055359;28;20028;-70
2022/01/15 06:31:16;;;;;;;4.43;1.77;;;;;;;;;;5054805;28;20036;-69
2022/01/15 06:33:43;;;;;;;3.13;1.73;;;;;;;;;;5037314;28;20091;-69
2022/01/15 06:36:10;;;;;;;4.13;1.97;;;;;;;;;;5031760;28;20049;-69
2022/01/15 06:38:37;;;;;;;4.87;1.90;;;;;;;;;;5030234;28;20092;-71
2022/01/15 06:41:05;;;;;;;6.00;2.20;;;;;;;;;;5030163;28;20025;-70
2022/01/15 06:43:32;;;;;;;5.00;2.10;;;;;;;;;;5030072;28;20389;-70
2022/01/15 06:45:59;;;;;;;5.43;2.40;;;;;;;;;;5032522;28;20021;-68
2022/01/15 06:48:28;;;;;;;4.27;2.37;;;;;;;;;;5034964;28;20469;-69
2022/01/15 06:50:55;;;;;;;4.27;2.00;;;;;;;;;;5035058;28;20021;-68
2022/01/15 06:53:23;;;;;;;3.27;1.97;;;;;;;;;;5034502;28;20036;-69
2022/01/15 06:55:52;;;;;;;6.30;2.87;;;;;;;;;;5034981;28;20369;-69
2022/01/15 06:58:23;;;;;;;5.13;2.40;;;;;;;;;;5031383;28;20061;-68
2022/01/15 07:00:50;;;;;;;3.80;2.27;;;;;;;;;;5029867;28;20029;-70
2022/01/15 07:03:17;;;;;;;4.40;1.80;;;;;;;;;;5029415;28;20037;-70
2022/01/15 07:05:44;;;;;;;3.77;2.17;;;;;;;;;;5029635;28;20029;-70
2022/01/15 07:08:12;;;;;;;6.60;2.20;;;;;;;;;;5032843;28;20051;-70
2022/01/15 07:10:41;;;;;;;4.73;2.20;;;;;;;;;;5034478;28;20048;-70
2022/01/15 07:13:08;;;;;;;5.03;1.90;;;;;;;;;;5033924;28;20032;-70
2022/01/15 07:15:36;;;;;;;3.30;2.00;;;;;;;;;;5034762;28;20026;-70
2022/01/15 07:18:03;;;;;;;4.10;1.80;;;;;;;;;;5034299;28;20025;-69
2022/01/15 07:20:31;;;;;;;3.20;1.57;;;;;;;;;;5030897;28;20021;-69
2022/01/15 07:22:59;;;;;;;4.30;2.03;;;;;;;;;;5043341;28;20052;-70
2022/01/15 07:25:26;;;;;;;5.30;2.00;;;;;;;;;;5049291;28;20574;-70
2022/01/15 07:27:54;;;;;;;5.37;2.40;;;;;;;;;;5048937;28;20048;-70
2022/01/15 07:30:21;;;;;;;7.13;3.27;;;;;;;;;;5051492;28;20560;-70
2022/01/15 07:32:48;;;;;;;4.00;2.20;;;;;;;;;;5040050;28;20044;-70
2022/01/15 07:35:15;;;;;;;5.30;2.00;;;;;;;;;;5034274;28;20035;-70
2022/01/15 07:37:42;;;;;;;3.83;1.80;;;;;;;;;;5033896;28;20029;-70
2022/01/15 07:40:10;;;;;;;4.20;2.03;;;;;;;;;;5034215;28;20379;-70
2022/01/15 07:42:39;;;;;;;4.27;1.90;;;;;;;;;;5030527;28;20076;-70
2022/01/15 07:45:13;;;;;;;4.63;2.33;;;;;;;;;;5028913;28;20045;-70
2022/01/15 07:47:41;;;;;;;4.88;1.80;;;;;;;;;;5028845;28;20076;-70
2022/01/15 07:50:14;;;;;;;3.97;2.33;;;;;;;;;;5028915;28;20108;-70
2022/01/15 07:52:41;;;;;;;3.73;1.93;;;;;;;;;;5031795;28;20017;-69
2022/01/15 07:55:08;;;;;;;3.20;1.80;;;;;;;;;;5033344;28;20417;-70
2022/01/15 07:57:35;;;;;;;3.70;1.70;;;;;;;;;;5033454;28;20028;-67
2022/01/15 08:00:02;;;;;;;4.47;1.97;;;;;;;;;;5033602;28;20018;-66
2022/01/15 08:02:30;;;;;;;4.07;1.53;;;;;;;;;;5033568;28;20530;-66
2022/01/15 08:04:57;;;;;;;5.30;2.10;;;;;;;;;;5029479;28;20115;-66
2022/01/15 08:07:25;;;;;;;4.00;1.97;;;;;;;;;;5026907;28;20380;-66
2022/01/15 08:09:52;;;;;;;4.63;2.10;;;;;;;;;;5027407;28;20034;-67
2022/01/15 08:12:21;;;;;;;4.13;1.90;;;;;;;;;;5025969;28;20387;-66
2022/01/15 08:14:49;;;;;;;3.77;1.93;;;;;;;;;;5031060;28;20025;-66
2022/01/15 08:17:17;;;;;;;3.27;1.77;;;;;;;;;;5032415;28;20384;-67
2022/01/15 08:19:46;;;;;;;4.70;2.07;;;;;;;;;;5032999;28;20053;-66
2022/01/15 08:22:16;;;;;;;4.67;1.90;;;;;;;;;;5040743;28;20071;-66
2022/01/15 08:24:43;;;;;;;6.40;2.73;;;;;;;;;;5052779;28;20029;-67
2022/01/15 08:27:12;;;;;;;4.90;1.77;;;;;;;;;;5048737;28;20086;-66
2022/01/15 08:29:42;;;;;;;4.13;1.80;;;;;;;;;;5044039;28;20029;-66
2022/01/15 08:32:11;;;;;;;2.77;1.60;;;;;;;;;;5027322;28;20028;-66
2022/01/15 08:34:40;;;;;;;4.33;1.80;;;;;;;;;;5027321;28;20450;-66
2022/01/15 08:37:08;;;;;;;3.77;1.90;;;;;;;;;;5030448;28;20028;-66
2022/01/15 08:39:37;;;;;;;4.03;1.87;;;;;;;;;;5032438;28;20835;-67
2022/01/15 08:42:07;;;;;;;4.23;2.20;;;;;;;;;;5032010;28;20554;-66
2022/01/15 08:44:40;;;;;;;3.07;1.50;;;;;;;;;;5032342;28;20291;-66
2022/01/15 08:47:09;;;;;;;5.13;1.73;;;;;;;;;;5032356;28;20029;-66
2022/01/15 08:49:37;;;;;;;7.53;2.17;;;;;;;;;;5026629;28;20026;-66
2022/01/15 08:52:04;;;;;;;4.67;2.83;;;;;;;;;;5026888;28;20781;-66
2022/01/15 08:54:31;;;;;;;3.77;1.93;;;;;;;;;;5027154;28;20029;-67
2022/01/15 08:56:58;;;;;;;4.30;2.57;;;;;;;;;;5026618;28;20072;-66
2022/01/15 08:59:27;;;;;;;2.97;1.87;;;;;;;;;;5030702;28;20025;-67
2022/01/15 09:01:55;;;;;;;4.53;2.23;;;;;;;;;;5031082;28;20026;-66
2022/01/15 09:04:22;;;;;;;4.07;2.37;;;;;;;;;;5032101;28;20079;-66
2022/01/15 09:06:50;;;;;;;3.23;1.93;;;;;;;;;;5031767;28;20037;-67
2022/01/15 09:09:18;;;;;;;2.30;1.50;;;;;;;;;;5031396;28;20267;-66
2022/01/15 09:11:45;;;;;;;3.50;1.83;;;;;;;;;;5026750;28;20773;-66
2022/01/15 09:14:12;;;;;;;3.63;1.97;;;;;;;;;;5026524;28;20652;-67
2022/01/15 09:16:40;;;;;;;6.67;2.17;;;;;;;;;;5026285;28;20255;-65
2022/01/15 09:19:07;;;;;;;5.03;1.70;;;;;;;;;;5026345;28;20266;-66
2022/01/15 09:21:34;;;;;;;3.97;1.90;;;;;;;;;;5032794;28;20108;-67
2022/01/15 09:24:02;;;;;;;5.23;1.97;;;;;;;;;;5052038;28;20292;-67
2022/01/15 09:26:48;;;;;;;3.17;1.83;;;;;;;;;;5051615;28;20254;-66
2022/01/15 09:32:01;;;;;;;4.60;2.03;;;;;;;;;;5012057;28;20595;-66
2022/01/15 09:34:28;;;;;;;4.77;2.40;;;;;;;;;;5006713;28;20673;-67
2022/01/15 09:36:56;;;;;;;3.93;2.00;;;;;;;;;;5006415;28;20263;-66
2022/01/15 09:39:23;;;;;;;5.27;2.30;;;;;;;;;;5006735;28;20263;-66
2022/01/15 09:41:54;;;;;;;3.60;1.93;;;;;;;;;;5006188;28;20352;-66
2022/01/15 09:44:23;;;;;;;5.50;2.00;;;;;;;;;;5011880;28;20801;-66
2022/01/15 09:46:50;;;;;;;3.23;2.00;;;;;;;;;;5011260;28;20949;-68
2022/01/15 09:49:18;;;;;;;4.60;2.33;;;;;;;;;;5016959;28;20266;-66
2022/01/15 09:51:46;;;;;;;4.00;2.30;;;;;;;;;;5031398;28;20302;-67
2022/01/15 09:54:15;;;;;;;4.20;2.03;;;;;;;;;;5033587;28;20246;-67
2022/01/15 09:56:42;;;;;;;12.33;3.77;;;;;;;;;;5029813;28;20270;-66
2022/01/15 09:59:09;;;;;;;7.20;2.57;;;;;;;;;;5030288;28;20262;-66
2022/01/15 10:01:36;;;;;;;5.23;2.77;;;;;;;;;;5029502;28;20265;-66
2022/01/15 10:04:03;;;;;;;5.77;2.83;;;;;;;;;;5029494;28;20720;-67
2022/01/15 10:06:30;;;;;;;4.63;2.20;;;;;;;;;;5034806;28;20271;-66
2022/01/15 10:09:02;;;;;;;7.00;3.53;;;;;;;;;;5035265;28;20255;-67
2022/01/15 10:11:41;;;;;;;6.17;2.87;;;;;;;;;;5035005;28;20275;-66
2022/01/15 10:14:27;;;;;;;5.47;2.70;;;;;;;;;;5035045;28;20613;-66
2022/01/15 10:16:55;;;;;;;8.40;3.45;;;;;;;;;;5032599;28;20259;-67
2022/01/15 10:19:31;;;;;;;7.07;4.20;;;;;;;;;;5029651;28;20034;-67
2022/01/15 10:21:57;;;;;;;;;;;;;;;;;;5035730;28;20261;-67
2022/01/15 10:24:28;;;;;;;7.37;4.83;;;;;;;;;;5041635;28;19962;-66
2022/01/15 10:27:15;;;;;;;8.67;4.50;;;;;;;;;;5030586;28;20773;-67
2022/01/15 10:29:41;;;;;;;6.83;4.37;;;;;;;;;;5035036;28;20258;-64
2022/01/15 10:32:13;;;;;;;5.00;3.30;;;;;;;;;;5034991;28;20265;-66
2022/01/15 10:34:44;;;;;;;7.03;4.50;;;;;;;;;;5034677;28;20258;-66
2022/01/15 10:37:18;;;;;;;9.13;4.87;;;;;;;;;;5034337;28;20277;-66
2022/01/15 10:39:55;;;;;;;10.67;5.77;;;;;;;;;;5030907;28;20358;-67
2022/01/15 10:42:25;;;;;;;9.93;4.30;;;;;;;;;;5029551;28;20267;-67
2022/01/15 10:44:57;;;;;;;8.47;5.20;;;;;;;;;;5028751;28;20283;-66
2022/01/15 10:47:26;;;;;;;10.60;5.30;;;;;;;;;;5028667;28;20259;-67
2022/01/15 10:49:53;;;;;;;8.63;4.93;;;;;;;;;;5032640;28;20254;-66
2022/01/15 10:52:23;;;;;;;10.00;5.07;;;;;;;;;;5034536;28;20746;-66
2022/01/15 10:55:06;;;;;;;8.33;4.47;;;;;;;;;;5034558;28;20243;-67
2022/01/15 10:57:35;;;;;;;8.87;4.77;;;;;;;;;;5033577;28;20744;-66
2022/01/15 11:00:02;;;;;;;8.07;4.80;;;;;;;;;;5034512;28;20254;-66
2022/01/15 11:02:30;;;;;;;7.50;4.90;;;;;;;;;;5028943;28;20255;-67
2022/01/15 11:04:57;;;;;;;8.70;4.27;;;;;;;;;;5028238;28;20290;-67
2022/01/15 11:07:24;;;;;;;10.50;5.20;;;;;;;;;;5028535;28;20254;-67
2022/01/15 11:09:53;;;;;;;9.83;5.60;;;;;;;;;;5028542;28;20267;-66
2022/01/15 11:12:26;;;;;;;9.97;5.23;;;;;;;;;;5032658;28;20262;-67
2022/01/15 11:14:53;;;;;;;6.67;4.27;;;;;;;;;;5033975;28;20259;-66
2022/01/15 11:17:20;;;;;;;9.90;6.13;;;;;;;;;;5033752;28;20275;-66
2022/01/15 11:19:52;;;;;;;11.03;6.57;;;;;;;;;;5033897;28;20266;-66
2022/01/15 11:22:23;;;;;;;10.90;5.37;;;;;;;;;;5042327;28;20328;-66
2022/01/15 11:24:51;;;;;;;8.37;5.43;;;;;;;;;;5048282;28;20290;-66
2022/01/15 11:27:18;;;;;;;9.87;5.67;;;;;;;;;;5048105;28;20327;-66
2022/01/15 11:29:46;;;;;;;7.57;4.50;;;;;;;;;;5048328;28;20258;-66
2022/01/15 11:32:14;;;;;;;7.97;4.63;;;;;;;;;;5048162;28;20254;-66
2022/01/15 11:34:44;;;;;;;7.63;5.17;;;;;;;;;;5051799;28;20282;-67
2022/01/15 11:37:18;;;;;;;13.23;6.70;;;;;;;;;;5032369;28;20274;-66
2022/01/15 11:39:52;;;;;;;10.60;5.15;;;;;;;;;;5033678;28;20251;-66
2022/01/15 11:42:35;;;;;;;10.07;5.30;;;;;;;;;;5033716;28;20443;-66
2022/01/15 11:45:04;;;;;;;8.57;5.50;;;;;;;;;;5032237;28;20302;-66
2022/01/15 11:47:32;;;;;;;7.60;5.03;;;;;;;;;;5027860;28;20456;-66
2022/01/15 11:50:20;;;;;;;8.50;4.73;;;;;;;;;;5027916;28;20261;-68
2022/01/15 11:52:48;;;;;;;8.60;4.07;;;;;;;;;;5027659;28;20265;-66
2022/01/15 11:55:18;;;;;;;8.57;5.10;;;;;;;;;;5028431;28;20254;-65
2022/01/15 11:57:47;;;;;;;9.87;5.27;;;;;;;;;;5032913;28;20262;-67
2022/01/15 12:00:20;;;;;;;17.17;7.50;;;;;;;;;;5015145;28;20278;-65
2022/01/15 12:03:00;;;;;;;14.70;7.70;;;;;;;;;;5013686;28;20259;-66
2022/01/15 12:05:28;;;;;;;13.03;6.27;;;;;;;;;;5013030;28;20302;-66
2022/01/15 12:08:00;;;;;;;14.93;6.57;;;;;;;;;;5010537;28;20267;-65
2022/01/15 12:10:41;;;;;;;14.30;5.97;;;;;;;;;;5007236;28;20271;-65
2022/01/15 12:13:11;;;;;;;12.77;5.50;;;;;;;;;;5007670;28;20766;-64
2022/01/15 12:15:38;;;;;;;13.37;6.53;;;;;;;;;;5018006;28;20262;-66
2022/01/15 12:18:34;;;;;;;12.50;6.30;;;;;;;;;;5029423;28;20748;-65
2022/01/15 12:21:00;;;;;;;14.55;6.70;;;;;;;;;;5006117;28;20262;-66
2022/01/15 12:23:28;;;;;;;21.37;9.20;;;;;;;;;;5032741;28;20096;-65
2022/01/15 12:25:55;;;;;;;16.33;6.70;;;;;;;;;;5032616;28;20801;-66
2022/01/15 12:28:24;;;;;;;14.00;6.10;;;;;;;;;;5032818;28;20259;-66
2022/01/15 12:30:54;;;;;;;13.70;7.40;;;;;;;;;;5028119;28;20353;-66
2022/01/15 12:33:21;;;;;;;14.17;6.27;;;;;;;;;;5027017;28;20290;-65
2022/01/15 12:35:50;;;;;;;12.17;6.00;;;;;;;;;;5026519;28;20274;-65
2022/01/15 12:38:21;;;;;;;10.53;5.13;;;;;;;;;;5026096;28;20728;-65
2022/01/15 12:40:52;;;;;;;22.27;8.40;;;;;;;;;;5031178;28;20255;-66
2022/01/15 12:43:25;;;;;;;13.13;5.73;;;;;;;;;;5032309;28;20258;-66
2022/01/15 12:45:53;;;;;;;20.13;6.97;;;;;;;;;;5032412;28;20265;-66
2022/01/15 12:48:22;;;;;;;31.20;10.97;;;;;;;;;;5032538;28;20255;-66
2022/01/15 12:50:53;;;;;;;26.47;9.20;;;;;;;;;;5032354;28;20433;-65
2022/01/15 12:53:22;;;;;;;16.43;6.93;;;;;;;;;;5026549;28;20263;-66
2022/01/15 12:55:50;;;;;;;14.27;7.23;;;;;;;;;;5026743;28;20633;-65
2022/01/15 12:58:18;;;;;;;13.67;5.80;;;;;;;;;;5026740;28;20757;-67
2022/01/15 13:00:45;;;;;;;12.30;6.07;;;;;;;;;;5026535;28;20341;-66
2022/01/15 13:03:13;;;;;;;15.87;5.70;;;;;;;;;;5030419;28;20270;-66
2022/01/15 13:05:41;;;;;;;11.53;4.77;;;;;;;;;;5031681;28;20279;-66
2022/01/15 13:08:13;;;;;;;15.50;5.70;;;;;;;;;;5032223;28;20334;-66
2022/01/15 13:10:49;;;;;;;17.30;6.97;;;;;;;;;;5031713;28;20295;-65
2022/01/15 13:13:17;;;;;;;12.57;4.90;;;;;;;;;;5031136;28;20325;-66
2022/01/15 13:15:44;;;;;;;9.80;4.70;;;;;;;;;;5026644;28;20262;-65
2022/01/15 13:18:12;;;;;;;15.97;5.80;;;;;;;;;;5026627;28;20263;-66
2022/01/15 13:20:39;;;;;;;22.07;6.93;;;;;;;;;;5026535;28;20342;-65
2022/01/15 13:23:06;;;;;;;13.57;6.87;;;;;;;;;;5025735;28;20262;-66
2022/01/15 13:25:33;;;;;;;12.47;5.37;;;;;;;;;;5030112;28;20337;-66
2022/01/15 13:28:02;;;;;;;16.73;5.50;;;;;;;;;;5033878;28;20642;-66
2022/01/15 13:30:29;;;;;;;21.53;7.10;;;;;;;;;;5038710;28;20321;-66
2022/01/15 13:33:00;;;;;;;15.97;6.70;;;;;;;;;;5038322;28;20329;-66
2022/01/15 13:35:32;;;;;;;19.97;8.77;;;;;;;;;;5038485;28;20286;-66
2022/01/15 13:38:00;;;;;;;14.97;7.77;;;;;;;;;;5032170;28;20274;-65
2022/01/15 13:40:28;;;;;;;25.27;9.73;;;;;;;;;;5032663;28;20265;-65
2022/01/15 13:42:54;;;;;;;20.43;7.87;;;;;;;;;;5032737;28;20938;-65
2022/01/15 13:45:21;;;;;;;11.00;5.87;;;;;;;;;;5032713;28;20286;-65
2022/01/15 13:47:48;;;;;;;12.33;6.57;;;;;;;;;;5037129;28;20263;-65
2022/01/15 13:53:57;;;;;;;15.80;6.37;;;;;;;;;;5038239;28;20257;-66
2022/01/15 13:56:26;;;;;;;12.67;6.73;;;;;;;;;;4957564;29;20257;-65
2022/01/15 13:58:54;;;;;;;12.80;7.67;;;;;;;;;;5007318;28;20314;-65
2022/01/15 14:01:40;;;;;;;13.50;8.60;;;;;;;;;;5013115;28;20895;-65
2022/01/15 14:04:23;;;;;;;12.77;8.53;;;;;;;;;;5010460;28;20283;-65
2022/01/15 14:06:50;;;;;;;13.20;8.27;;;;;;;;;;5012385;28;20255;-66
2022/01/15 14:09:18;;;;;;;12.57;7.83;;;;;;;;;;5015853;28;20251;-66
2022/01/15 14:12:02;;;;;;;14.07;7.33;;;;;;;;;;5018519;28;20777;-66
2022/01/15 14:14:29;;;;;;;15.40;8.57;;;;;;;;;;5018867;28;20766;-66
2022/01/15 14:16:57;;;;;;;14.40;8.67;;;;;;;;;;5036284;28;20741;-66
2022/01/15 14:22:18;;;;;;;15.10;9.33;;;;;;;;;;5032882;28;20045;-67
2022/01/15 14:24:47;;;;;;;16.25;7.88;;;;;;;;;;5032094;28;20111;-66
2022/01/15 14:27:20;;;;;;;12.33;7.10;;;;;;;;;;5032378;28;20051;-66
2022/01/15 14:29:48;;;;;;;11.87;8.00;;;;;;;;;;5032684;28;20052;-66
2022/01/15 14:32:14;;;;;;;14.73;7.10;;;;;;;;;;5037031;28;20029;-66
2022/01/15 14:34:41;;;;;;;14.33;6.77;;;;;;;;;;5037744;28;20108;-67
2022/01/15 14:37:09;;;;;;;12.43;7.10;;;;;;;;;;5038098;28;20024;-66
2022/01/15 14:39:36;;;;;;;10.97;6.80;;;;;;;;;;5035509;28;20116;-66
2022/01/15 14:42:03;;;;;;;15.87;6.30;;;;;;;;;;5034414;28;20143;-67
2022/01/15 14:44:29;;;;;;;12.43;6.37;;;;;;;;;;5029043;28;20086;-67
2022/01/15 14:46:56;;;;;;;13.23;6.10;;;;;;;;;;5028772;28;20032;-67
2022/01/15 14:49:23;;;;;;;12.43;6.53;;;;;;;;;;5029277;28;20392;-67
2022/01/15 14:51:49;;;;;;;15.40;6.23;;;;;;;;;;5029014;28;20079;-66
2022/01/15 14:54:16;;;;;;;17.10;7.00;;;;;;;;;;5033123;28;20029;-66
2022/01/15 14:56:43;;;;;;;14.33;5.73;;;;;;;;;;5034183;28;20044;-66
2022/01/15 14:59:09;;;;;;;12.80;6.03;;;;;;;;;;5034533;28;20036;-67
2022/01/15 15:01:36;;;;;;;8.13;5.10;;;;;;;;;;5034728;28;20033;-66
2022/01/15 15:04:06;;;;;;;13.93;5.57;;;;;;;;;;5031309;28;20051;-69
2022/01/15 15:06:33;;;;;;;10.13;5.47;;;;;;;;;;5028051;28;20037;-66
2022/01/15 15:08:59;;;;;;;9.67;5.17;;;;;;;;;;5028944;28;20029;-65
2022/01/15 15:11:27;;;;;;;8.73;4.47;;;;;;;;;;5028578;28;20033;-66
2022/01/15 15:13:54;;;;;;;5.83;3.70;;;;;;;;;;5028339;28;20136;-69
2022/01/15 15:16:21;;;;;;;7.63;4.03;;;;;;;;;;5032692;28;20041;-67
2022/01/15 15:18:48;;;;;;;6.03;3.70;;;;;;;;;;5033583;28;20067;-69